createdAt,value
2018-11-11T00:00:51.917Z,11.17
2018-11-11T00:03:20.284Z,10.53
2018-11-11T00:05:48.761Z,11.10
2018-11-11T00:08:17.100Z,11.23
2018-11-11T00:10:45.436Z,10.53
2018-11-11T00:13:13.834Z,10.80
2018-11-11T00:15:42.200Z,10.53
2018-11-11T00:18:10.555Z,12.23
2018-11-11T00:20:38.832Z,10.30
2018-11-11T00:23:07.165Z,10.90
2018-11-11T00:25:35.508Z,11.23
2018-11-11T00:28:03.845Z,11.47
2018-11-11T00:30:32.215Z,11.17
2018-11-11T00:33:00.571Z,10.90
2018-11-11T00:35:28.924Z,11.27
2018-11-11T00:37:57.296Z,11.23
2018-11-11T00:40:25.617Z,11.23
2018-11-11T00:42:53.952Z,11.13
2018-11-11T00:45:22.292Z,10.60
2018-11-11T00:47:50.679Z,11.77
2018-11-11T00:50:18.991Z,12.47
2018-11-11T00:52:47.384Z,11.70
2018-11-11T00:55:16.687Z,12.07
2018-11-11T00:57:45.394Z,11.43
2018-11-11T01:00:16.453Z,12.70
2018-11-11T01:02:45.248Z,12.20
2018-11-11T01:05:14.065Z,13.67
2018-11-11T01:07:42.858Z,13.83
2018-11-11T01:10:12.825Z,13.30
2018-11-11T01:12:41.894Z,12.30
2018-11-11T01:15:11.832Z,14.10
2018-11-11T01:17:40.240Z,14.20
2018-11-11T01:20:10.532Z,15.13
2018-11-11T01:22:38.848Z,15.00
2018-11-11T01:25:09.072Z,15.10
2018-11-11T01:27:37.566Z,14.83
2018-11-11T01:30:06.177Z,15.17
2018-11-11T01:32:34.536Z,14.67
2018-11-11T01:35:02.924Z,15.80
2018-11-11T01:37:31.240Z,15.87
2018-11-11T01:39:59.560Z,16.03
2018-11-11T01:42:27.906Z,16.30
2018-11-11T01:44:56.216Z,16.63
2018-11-11T01:47:24.600Z,16.13
2018-11-11T01:49:52.964Z,16.37
2018-11-11T01:52:21.317Z,16.93
2018-11-11T01:54:49.646Z,16.87
2018-11-11T01:57:17.992Z,17.27
2018-11-11T01:59:46.469Z,17.40
2018-11-11T02:02:14.785Z,16.90
2018-11-11T02:04:43.164Z,16.67
2018-11-11T02:07:11.531Z,17.37
2018-11-11T02:09:39.855Z,17.63
2018-11-11T02:12:08.236Z,17.07
2018-11-11T02:14:36.576Z,18.20
2018-11-11T02:17:04.959Z,18.50
2018-11-11T02:19:33.337Z,18.50
2018-11-11T02:22:01.676Z,18.17
2018-11-11T02:24:30.034Z,18.33
2018-11-11T02:26:58.388Z,18.67
2018-11-11T02:29:26.735Z,19.03
2018-11-11T02:31:55.040Z,19.47
2018-11-11T02:34:23.392Z,19.57
2018-11-11T02:36:51.721Z,19.23
2018-11-11T02:39:20.038Z,18.67
2018-11-11T02:41:48.348Z,18.40
2018-11-11T02:44:16.653Z,17.67
2018-11-11T02:46:44.964Z,18.43
2018-11-11T02:49:13.264Z,19.23
2018-11-11T02:51:41.605Z,19.33
2018-11-11T02:54:09.972Z,19.63
2018-11-11T02:56:38.337Z,18.90
2018-11-11T02:59:06.774Z,18.60
2018-11-11T03:01:35.101Z,19.27
2018-11-11T03:04:03.425Z,19.43
2018-11-11T03:06:31.765Z,18.90
2018-11-11T03:09:00.161Z,19.33
2018-11-11T03:11:28.548Z,18.40
2018-11-11T03:13:56.892Z,19.20
2018-11-11T03:16:25.269Z,18.13
2018-11-11T03:18:53.624Z,18.60
2018-11-11T03:21:21.937Z,19.03
2018-11-11T03:23:50.278Z,19.27
2018-11-11T03:26:18.580Z,19.17
2018-11-11T03:28:46.924Z,18.50
2018-11-11T03:31:15.286Z,18.80
2018-11-11T03:33:43.614Z,19.47
2018-11-11T03:36:11.892Z,19.93
2018-11-11T03:38:40.198Z,20.10
2018-11-11T03:41:08.523Z,18.60
2018-11-11T03:43:36.854Z,19.50
2018-11-11T03:46:05.217Z,19.10
2018-11-11T03:48:33.546Z,18.30
2018-11-11T03:51:01.803Z,18.63
2018-11-11T03:53:30.149Z,19.07
2018-11-11T03:55:58.417Z,19.40
2018-11-11T03:58:26.727Z,18.30
2018-11-11T04:00:55.019Z,18.63
2018-11-11T04:03:23.261Z,19.57
2018-11-11T04:05:51.513Z,18.50
2018-11-11T04:08:19.749Z,17.83
2018-11-11T04:10:48.034Z,18.33
2018-11-11T04:13:16.292Z,18.23
2018-11-11T04:15:44.552Z,17.87
2018-11-11T04:18:12.801Z,17.77
2018-11-11T04:20:41.080Z,17.50
2018-11-11T04:23:09.333Z,18.30
2018-11-11T04:25:37.623Z,18.00
2018-11-11T04:28:05.888Z,17.40
2018-11-11T04:30:34.155Z,17.10
2018-11-11T04:33:02.402Z,16.57
2018-11-11T04:35:30.679Z,17.17
2018-11-11T04:37:59.125Z,16.50
2018-11-11T04:40:27.325Z,16.73
2018-11-11T04:42:55.597Z,16.90
2018-11-11T04:45:23.850Z,15.57
2018-11-11T04:47:52.158Z,16.83
2018-11-11T04:50:20.415Z,16.30
2018-11-11T04:52:48.668Z,16.00
2018-11-11T04:55:16.924Z,16.73
2018-11-11T04:57:45.188Z,16.60
2018-11-11T05:00:14.474Z,16.40
2018-11-11T05:02:43.016Z,17.10
2018-11-11T05:05:12.305Z,16.57
2018-11-11T05:07:40.808Z,17.30
2018-11-11T05:10:09.367Z,17.20
2018-11-11T05:12:37.862Z,16.20
2018-11-11T05:15:07.168Z,16.43
2018-11-11T05:17:35.376Z,15.97
2018-11-11T05:20:03.703Z,15.87
2018-11-11T05:22:31.918Z,15.97
2018-11-11T05:25:00.182Z,15.03
2018-11-11T05:27:28.445Z,15.30
2018-11-11T05:29:56.722Z,15.40
2018-11-11T05:32:25.034Z,15.20
2018-11-11T05:34:53.293Z,14.87
2018-11-11T05:37:21.624Z,14.60
2018-11-11T05:39:49.871Z,14.97
2018-11-11T05:42:18.254Z,13.90
2018-11-11T05:44:46.510Z,14.07
2018-11-11T05:47:14.776Z,13.80
2018-11-11T05:49:43.057Z,13.60
2018-11-11T05:52:11.333Z,13.03
2018-11-11T05:54:39.686Z,13.37
2018-11-11T05:57:07.913Z,13.40
2018-11-11T05:59:36.269Z,12.47
2018-11-11T06:02:04.529Z,12.07
2018-11-11T06:04:32.802Z,13.03
2018-11-11T06:07:01.037Z,13.23
2018-11-11T06:09:29.300Z,12.87
2018-11-11T06:11:57.586Z,13.30
2018-11-11T06:14:25.917Z,13.23
2018-11-11T06:16:54.190Z,13.13
2018-11-11T06:19:22.460Z,13.17
2018-11-11T06:21:50.718Z,13.27
2018-11-11T06:24:18.999Z,12.50
2018-11-11T06:26:47.430Z,12.03
2018-11-11T06:29:15.690Z,12.13
2018-11-11T06:31:44.104Z,12.80
2018-11-11T06:34:12.429Z,12.70
2018-11-11T06:36:40.638Z,11.87
2018-11-11T06:39:10.073Z,12.33
2018-11-11T06:41:38.405Z,12.10
2018-11-11T06:44:06.793Z,12.37
2018-11-11T06:46:35.076Z,11.77
2018-11-11T06:49:03.478Z,12.97
2018-11-11T06:51:31.745Z,12.10
2018-11-11T06:54:00.030Z,13.07
2018-11-11T06:56:28.542Z,11.93
2018-11-11T06:58:56.815Z,12.67
2018-11-11T07:01:25.105Z,12.77
2018-11-11T07:04:00.038Z,11.80
2018-11-11T07:06:28.793Z,11.30
2018-11-11T07:08:57.058Z,12.70
2018-11-11T07:11:25.365Z,11.83
2018-11-11T07:13:53.809Z,11.43
2018-11-11T07:16:22.085Z,12.20
2018-11-11T07:18:50.334Z,12.23
2018-11-11T07:21:18.870Z,12.63
2018-11-11T07:23:47.439Z,13.97
2018-11-11T07:26:15.613Z,11.90
2018-11-11T07:28:43.911Z,12.47
2018-11-11T07:31:12.192Z,13.17
2018-11-11T07:33:40.802Z,13.37
2018-11-11T07:36:10.067Z,13.47
2018-11-11T07:38:38.327Z,12.90
2018-11-11T07:41:06.710Z,14.43
2018-11-11T07:43:35.181Z,13.73
2018-11-11T07:46:03.618Z,13.63
2018-11-11T07:48:31.954Z,13.87
2018-11-11T07:51:00.290Z,12.40
2018-11-11T07:53:28.915Z,12.60
2018-11-11T07:55:57.190Z,12.53
2018-11-11T07:58:25.544Z,10.33
2018-11-11T08:00:53.831Z,10.57
2018-11-11T08:03:22.154Z,10.33
2018-11-11T08:05:50.416Z,10.17
2018-11-11T08:08:18.727Z,10.10
2018-11-11T08:10:58.422Z,10.80
2018-11-11T08:13:26.677Z,11.17
2018-11-11T08:15:55.037Z,10.10
2018-11-11T08:18:23.289Z,10.50
2018-11-11T08:20:51.727Z,10.77
2018-11-11T08:23:20.033Z,10.50
2018-11-11T08:25:48.307Z,9.27
2018-11-11T08:28:16.769Z,10.53
2018-11-11T08:30:45.026Z,9.67
2018-11-11T08:33:13.465Z,10.43
2018-11-11T08:35:41.826Z,10.27
2018-11-11T08:38:10.125Z,9.07
2018-11-11T08:40:38.493Z,9.67
2018-11-11T08:43:06.682Z,9.07
2018-11-11T08:45:34.989Z,9.50
2018-11-11T08:48:03.230Z,8.93
2018-11-11T08:50:31.522Z,8.50
2018-11-11T08:52:59.923Z,9.37
2018-11-11T08:55:28.190Z,8.63
2018-11-11T08:57:56.499Z,8.50
2018-11-11T09:00:24.741Z,8.67
2018-11-11T09:02:53.033Z,8.63
2018-11-11T09:05:21.298Z,8.07
2018-11-11T09:07:49.560Z,8.40
2018-11-11T09:10:17.837Z,8.20
2018-11-11T09:12:46.182Z,9.03
2018-11-11T09:15:15.209Z,9.27
2018-11-11T09:17:43.918Z,8.53
2018-11-11T09:20:13.330Z,8.50
2018-11-11T09:22:41.801Z,8.70
2018-11-11T09:25:10.489Z,9.10
2018-11-11T09:27:39.761Z,9.27
2018-11-11T09:30:09.707Z,9.03
2018-11-11T09:32:38.034Z,8.53
2018-11-11T09:35:06.754Z,9.20
2018-11-11T09:37:34.949Z,8.83
2018-11-11T09:40:03.277Z,8.87
2018-11-11T09:42:31.705Z,8.40
2018-11-11T09:44:59.974Z,9.53
2018-11-11T09:47:28.214Z,8.63
2018-11-11T09:49:56.493Z,8.53
2018-11-11T09:52:24.805Z,8.17
2018-11-11T09:54:53.078Z,8.10
2018-11-11T09:57:21.338Z,8.80
2018-11-11T09:59:49.659Z,8.53
2018-11-11T10:02:18.232Z,9.17
2018-11-11T10:04:52.289Z,8.37
2018-11-11T10:07:29.721Z,8.10
2018-11-11T10:10:02.926Z,8.10
2018-11-11T10:12:36.405Z,8.00
2018-11-11T10:15:24.514Z,8.37
2018-11-11T10:17:58.150Z,7.70
2018-11-11T10:20:31.919Z,8.50
2018-11-11T10:23:07.623Z,8.00
2018-11-11T10:25:41.267Z,7.63
2018-11-11T10:28:14.529Z,7.70
2018-11-11T10:30:49.153Z,7.50
2018-11-11T10:34:24.570Z,7.70
2018-11-11T10:37:55.589Z,7.40
2018-11-11T10:40:59.206Z,7.03
2018-11-11T10:43:58.968Z,7.40
2018-11-11T10:46:35.217Z,7.17
2018-11-11T10:49:05.116Z,7.07
2018-11-11T10:51:33.402Z,7.87
2018-11-11T10:54:01.666Z,7.43
2018-11-11T10:56:29.971Z,7.87
2018-11-11T10:58:58.297Z,7.13
2018-11-11T11:01:26.620Z,7.10
2018-11-11T11:03:54.861Z,7.00
2018-11-11T11:06:28.495Z,6.40
2018-11-11T11:11:36.291Z,7.73
2018-11-11T11:14:04.815Z,7.40
2018-11-11T11:16:33.087Z,7.50
2018-11-11T11:19:01.352Z,6.30
2018-11-11T11:21:29.743Z,6.60
2018-11-11T11:23:58.020Z,6.80
2018-11-11T11:26:26.270Z,6.90
2018-11-11T11:28:54.660Z,6.60
2018-11-11T11:31:22.974Z,6.03
2018-11-11T11:33:51.410Z,6.73
2018-11-11T11:36:19.674Z,6.60
2018-11-11T11:38:48.353Z,6.33
2018-11-11T11:41:16.722Z,5.63
2018-11-11T11:43:44.918Z,6.57
2018-11-11T11:46:13.190Z,6.17
2018-11-11T11:48:41.606Z,6.40
2018-11-11T11:51:09.957Z,5.40
2018-11-11T11:53:38.238Z,5.67
2018-11-11T11:56:06.522Z,5.37
2018-11-11T11:58:34.822Z,5.03
2018-11-11T12:01:03.096Z,5.00
2018-11-11T12:03:31.342Z,5.17
2018-11-11T12:05:59.606Z,5.80
2018-11-11T12:08:27.922Z,4.43
2018-11-11T12:10:56.145Z,5.57
2018-11-11T12:13:24.437Z,5.30
2018-11-11T12:15:52.690Z,5.43
2018-11-11T12:18:20.923Z,5.00
2018-11-11T12:20:49.247Z,5.10
2018-11-11T12:23:17.550Z,5.13
2018-11-11T12:25:45.805Z,4.80
2018-11-11T12:28:14.101Z,4.73
2018-11-11T12:30:42.418Z,4.27
2018-11-11T12:33:10.682Z,4.57
2018-11-11T12:35:39.007Z,4.20
2018-11-11T12:38:07.270Z,3.93
2018-11-11T12:40:35.518Z,4.00
2018-11-11T12:43:03.759Z,4.50
2018-11-11T12:45:32.009Z,3.80
2018-11-11T12:48:00.259Z,3.77
2018-11-11T12:50:28.562Z,3.43
2018-11-11T12:52:56.775Z,3.77
2018-11-11T12:55:25.223Z,3.33
2018-11-11T12:57:53.359Z,3.23
2018-11-11T13:00:21.621Z,3.57
2018-11-11T13:02:49.892Z,3.60
2018-11-11T13:05:18.158Z,3.30
2018-11-11T13:07:46.497Z,3.30
2018-11-11T13:10:14.973Z,3.57
2018-11-11T13:12:43.362Z,2.90
2018-11-11T13:15:12.876Z,3.30
2018-11-11T13:17:41.649Z,2.77
2018-11-11T13:20:16.262Z,3.00
2018-11-11T13:22:44.672Z,3.23
2018-11-11T13:25:13.389Z,2.80
2018-11-11T13:27:41.714Z,3.07
2018-11-11T13:30:11.610Z,2.80
2018-11-11T13:32:39.903Z,2.50
2018-11-11T13:35:10.457Z,2.70
2018-11-11T13:37:38.790Z,3.00
2018-11-11T13:40:11.285Z,2.47
2018-11-11T13:42:39.562Z,2.57
2018-11-11T13:45:10.704Z,2.80
2018-11-11T13:47:39.034Z,2.60
2018-11-11T13:50:10.102Z,2.70
2018-11-11T13:52:38.354Z,2.80
2018-11-11T13:55:07.641Z,1.97
2018-11-11T13:57:35.917Z,2.40
2018-11-11T14:00:05.354Z,3.00
2018-11-11T14:02:33.735Z,2.60
2018-11-11T14:05:01.995Z,2.50
2018-11-11T14:16:01.557Z,2.60
2018-11-11T14:18:30.027Z,2.40
2018-11-11T14:20:58.264Z,2.50
2018-11-11T14:23:26.702Z,2.50
2018-11-11T14:25:55.088Z,2.60
2018-11-11T14:28:23.559Z,2.53
2018-11-11T14:30:51.820Z,2.67
2018-11-11T14:33:20.037Z,2.80
2018-11-11T14:35:48.360Z,2.80
2018-11-11T14:38:16.614Z,2.57
2018-11-11T14:40:46.031Z,2.47
2018-11-11T14:43:14.314Z,2.80
2018-11-11T14:45:42.666Z,3.03
2018-11-11T14:48:10.931Z,3.07
2018-11-11T14:50:39.175Z,3.20
2018-11-11T14:53:07.504Z,2.73
2018-11-11T14:55:35.786Z,2.77
2018-11-11T14:58:04.099Z,3.00
2018-11-11T15:00:36.937Z,3.17
2018-11-11T15:03:08.342Z,2.80
2018-11-11T15:05:36.614Z,3.17
2018-11-11T15:08:04.996Z,3.20
2018-11-11T15:10:33.471Z,3.60
2018-11-11T15:13:01.762Z,3.47
2018-11-11T15:15:30.046Z,3.50
2018-11-11T15:17:59.311Z,3.20
2018-11-11T15:20:27.672Z,3.20
2018-11-11T15:22:55.869Z,3.27
2018-11-11T15:25:25.631Z,3.40
2018-11-11T15:27:57.607Z,3.30
2018-11-11T15:30:28.272Z,3.80
2018-11-11T15:32:58.252Z,3.50
2018-11-11T15:35:26.534Z,3.57
2018-11-11T15:37:54.834Z,3.67
2018-11-11T15:40:24.729Z,3.87
2018-11-11T15:42:52.973Z,4.10
2018-11-11T15:45:22.629Z,4.00
2018-11-11T15:47:50.954Z,4.10
2018-11-11T15:50:20.714Z,4.00
2018-11-11T15:52:50.302Z,4.20
2018-11-11T15:55:19.532Z,4.07
2018-11-11T15:57:50.138Z,3.90
2018-11-11T16:00:22.662Z,3.30
2018-11-11T16:02:50.950Z,3.83
2018-11-11T16:05:19.714Z,3.50
2018-11-11T16:07:48.790Z,3.80
2018-11-11T16:10:21.465Z,3.40
2018-11-11T16:12:50.939Z,3.73
2018-11-11T16:15:21.666Z,3.80
2018-11-11T16:17:51.334Z,4.00
2018-11-11T16:20:22.110Z,3.40
2018-11-11T16:22:51.515Z,3.67
2018-11-11T16:25:19.733Z,3.47
2018-11-11T16:27:48.438Z,3.70
2018-11-11T16:30:21.340Z,3.73
2018-11-11T16:32:50.216Z,3.30
2018-11-11T16:35:19.698Z,3.80
2018-11-11T16:37:48.032Z,3.67
2018-11-11T16:40:25.473Z,3.57
2018-11-11T16:42:53.946Z,3.87
2018-11-11T16:45:25.426Z,3.40
2018-11-11T16:47:53.798Z,4.23
2018-11-11T16:50:25.155Z,4.00
2018-11-11T16:52:56.348Z,3.60
2018-11-11T16:55:25.892Z,3.47
2018-11-11T16:57:54.202Z,3.33
2018-11-11T17:00:23.694Z,3.50
2018-11-11T17:02:52.597Z,3.40
2018-11-11T17:05:22.861Z,3.90
2018-11-11T17:07:51.539Z,4.10
2018-11-11T17:10:21.207Z,4.27
2018-11-11T17:12:51.526Z,3.50
2018-11-11T17:15:21.246Z,4.07
2018-11-11T17:17:49.487Z,3.13
2018-11-11T17:20:19.153Z,4.07
2018-11-11T17:22:48.887Z,4.50
2018-11-11T17:25:17.724Z,3.87
2018-11-11T17:27:46.338Z,4.63
2018-11-11T17:30:18.376Z,4.10
2018-11-11T17:32:47.568Z,4.03
2018-11-11T17:35:15.855Z,3.90
2018-11-11T17:37:44.182Z,4.10
2018-11-11T17:40:14.397Z,4.70
2018-11-11T17:42:44.043Z,4.07
2018-11-11T17:45:12.757Z,3.87
2018-11-11T17:47:41.651Z,4.27
2018-11-11T17:50:12.078Z,4.27
2018-11-11T17:52:40.729Z,4.77
2018-11-11T17:55:09.965Z,4.00
2018-11-11T17:57:38.271Z,4.43
2018-11-11T18:00:07.810Z,3.47
2018-11-11T18:02:36.128Z,4.87
2018-11-11T18:05:04.518Z,3.63
2018-11-11T18:07:32.750Z,4.70
2018-11-11T18:10:01.026Z,4.60
2018-11-11T18:12:29.298Z,4.47
2018-11-11T18:14:57.582Z,4.90
2018-11-11T18:17:25.851Z,5.30
2018-11-11T18:19:54.092Z,5.10
2018-11-11T18:22:22.347Z,5.13
2018-11-11T18:24:50.658Z,5.10
2018-11-11T18:27:19.271Z,5.80
2018-11-11T18:29:51.363Z,5.73
2018-11-11T18:32:19.882Z,4.40
2018-11-11T18:34:48.321Z,5.40
2018-11-11T18:37:16.692Z,4.70
2018-11-11T18:39:44.938Z,3.67
2018-11-11T18:42:13.219Z,4.00
2018-11-11T18:44:41.511Z,4.30
2018-11-11T18:47:09.890Z,3.47
2018-11-11T18:49:38.158Z,4.60
2018-11-11T18:52:06.407Z,4.30
2018-11-11T18:54:34.725Z,4.33
2018-11-11T18:57:03.159Z,4.60
2018-11-11T18:59:34.948Z,4.27
2018-11-11T19:02:03.221Z,4.83
2018-11-11T19:04:31.473Z,4.13
2018-11-11T19:07:05.330Z,4.50
2018-11-11T19:09:33.587Z,4.50
2018-11-11T19:12:01.859Z,4.00
2018-11-11T19:14:31.194Z,5.10
2018-11-11T19:17:00.612Z,5.27
2018-11-11T19:19:28.946Z,5.10
2018-11-11T19:21:57.210Z,5.20
2018-11-11T19:24:25.512Z,4.60
2018-11-11T19:26:53.803Z,4.70
2018-11-11T19:29:22.059Z,4.73
2018-11-11T19:31:50.334Z,5.33
2018-11-11T19:34:19.633Z,5.30
2018-11-11T19:36:47.916Z,5.60
2018-11-11T19:39:16.167Z,5.43
2018-11-11T19:41:44.476Z,5.23
2018-11-11T19:44:12.703Z,5.73
2018-11-11T19:46:41.362Z,4.77
2018-11-11T19:49:09.639Z,5.70
2018-11-11T19:51:37.935Z,5.30
2018-11-11T19:54:06.142Z,5.20
2018-11-11T19:56:34.407Z,6.27
2018-11-11T19:59:02.724Z,6.00
2018-11-11T20:01:30.954Z,6.23
2018-11-11T20:03:59.225Z,6.40
2018-11-11T20:06:27.475Z,4.97
2018-11-11T20:08:55.955Z,4.70
2018-11-11T20:11:24.293Z,6.17
2018-11-11T20:13:52.508Z,6.07
2018-11-11T20:16:21.089Z,5.90
2018-11-11T20:18:50.399Z,6.17
2018-11-11T20:21:18.654Z,7.33
2018-11-11T20:23:47.877Z,5.70
2018-11-11T20:26:16.127Z,6.43
2018-11-11T20:28:44.403Z,6.20
2018-11-11T20:31:12.638Z,5.17
2018-11-11T20:33:40.898Z,5.73
2018-11-11T20:36:09.143Z,6.40
2018-11-11T20:38:37.410Z,7.30
2018-11-11T20:41:05.829Z,5.73
2018-11-11T20:43:34.067Z,6.27
2018-11-11T20:46:02.329Z,6.60
2018-11-11T20:48:30.597Z,5.07
2018-11-11T20:50:58.858Z,4.97
2018-11-11T20:53:27.129Z,5.10
2018-11-11T20:55:55.417Z,6.10
2018-11-11T20:58:23.710Z,5.57
2018-11-11T21:00:51.953Z,5.57
2018-11-11T21:03:20.254Z,6.10
2018-11-11T21:05:48.519Z,4.93
2018-11-11T21:08:16.770Z,6.47
2018-11-11T21:10:48.426Z,5.90
2018-11-11T21:13:16.774Z,6.90
2018-11-11T21:15:45.010Z,6.70
2018-11-11T21:18:13.258Z,6.73
2018-11-11T21:20:41.531Z,7.30
2018-11-11T21:23:09.802Z,7.20
2018-11-11T21:25:38.148Z,6.73
2018-11-11T21:28:06.322Z,7.00
2018-11-11T21:30:34.588Z,7.07
2018-11-11T21:33:02.826Z,6.43
2018-11-11T21:35:31.081Z,7.70
2018-11-11T21:37:59.446Z,7.77
2018-11-11T21:40:27.993Z,8.40
2018-11-11T21:42:56.582Z,8.83
2018-11-11T21:45:26.181Z,8.47
2018-11-11T21:47:54.547Z,7.70
2018-11-11T21:50:24.171Z,8.07
2018-11-11T21:53:29.281Z,8.93
2018-11-11T21:55:57.933Z,8.93
2018-11-11T21:58:26.366Z,8.20
2018-11-11T22:00:56.772Z,8.23
2018-11-11T22:03:25.325Z,7.77
2018-11-11T22:05:53.930Z,7.20
2018-11-11T22:08:22.630Z,8.90
2018-11-11T22:10:51.240Z,8.07
2018-11-11T22:13:20.190Z,9.90
2018-11-11T22:15:48.475Z,10.90
2018-11-11T22:18:16.986Z,9.20
2018-11-11T22:20:45.237Z,8.20
2018-11-11T22:23:14.542Z,9.17
2018-11-11T22:25:42.903Z,8.87
2018-11-11T22:28:11.288Z,9.67
2018-11-11T22:30:39.475Z,9.67
2018-11-11T22:33:07.709Z,9.67
2018-11-11T22:35:36.624Z,9.90
2018-11-11T22:38:05.570Z,9.60
2018-11-11T22:40:34.117Z,9.53
2018-11-11T22:43:02.439Z,9.77
2018-11-11T22:45:30.717Z,9.60
2018-11-11T22:47:58.970Z,10.07
2018-11-11T22:50:27.218Z,10.43
2018-11-11T22:52:55.514Z,8.60
2018-11-11T22:55:23.802Z,9.27
2018-11-11T22:57:52.042Z,9.37
2018-11-11T23:00:27.671Z,9.07
2018-11-11T23:02:55.997Z,8.57
2018-11-11T23:05:24.490Z,8.93
2018-11-11T23:07:52.762Z,8.87
2018-11-11T23:10:21.116Z,8.23
2018-11-11T23:12:49.360Z,8.40
2018-11-11T23:15:21.591Z,8.50
2018-11-11T23:17:49.830Z,8.03
2018-11-11T23:20:19.301Z,8.50
2018-11-11T23:22:47.767Z,8.87
2018-11-11T23:25:16.898Z,9.10
2018-11-11T23:27:45.139Z,8.70
2018-11-11T23:30:16.723Z,8.27
2018-11-11T23:32:45.525Z,8.43
2018-11-11T23:35:13.978Z,8.57
2018-11-11T23:37:42.933Z,8.77
2018-11-11T23:40:12.814Z,8.80
2018-11-11T23:42:41.883Z,8.53
2018-11-11T23:45:10.182Z,9.83
2018-11-11T23:47:38.523Z,8.43
2018-11-11T23:50:09.094Z,7.60
2018-11-11T23:52:37.315Z,8.60
2018-11-11T23:55:07.074Z,10.13
2018-11-11T23:57:35.559Z,8.93
